Time;durP1;ratioP1;P1;durP2;ratioP2;P2;SDS_P1;SDS_P2;PMS_P1;PMS_P2;Temp;Humidity;BMP_temperature;BMP_pressure;BME280_temperature;BME280_humidity;BME280_pressure;Samples;Min_cycle;Max_cycle;Signal;HPM_P1;HPM_P2
2020/12/23 00:01:57;;;;;;;20.85;12.13;;;7.30;95.50;;;;;;4991809;28;20042;-52
2020/12/23 00:04:24;;;;;;;19.92;13.45;;;7.30;95.50;;;;;;4998054;28;20043;-49
2020/12/23 00:06:50;;;;;;;19.13;12.45;;;7.30;95.50;;;;;;4997647;28;20057;-49
2020/12/23 00:09:17;;;;;;;17.55;12.10;;;7.30;95.50;;;;;;4990437;28;20039;-50
2020/12/23 00:11:42;;;;;;;26.48;14.25;;;7.30;95.50;;;;;;4978269;28;20043;-51
2020/12/23 00:14:08;;;;;;;23.10;13.45;;;7.30;95.50;;;;;;4996490;28;20452;-50
2020/12/23 00:16:34;;;;;;;19.42;12.65;;;7.30;95.50;;;;;;4988266;28;20085;-49
2020/12/23 00:19:00;;;;;;;16.77;12.93;;;7.40;95.50;;;;;;4993999;28;20047;-50
2020/12/23 00:21:25;;;;;;;25.45;14.20;;;7.40;95.50;;;;;;4997767;28;20039;-50
2020/12/23 00:23:51;;;;;;;22.25;14.30;;;7.40;95.50;;;;;;4995922;28;20050;-49
2020/12/23 00:26:17;;;;;;;21.90;14.35;;;7.40;95.50;;;;;;4998947;28;20099;-49
2020/12/23 00:28:42;;;;;;;23.40;13.70;;;7.40;95.40;;;;;;4983694;28;20039;-48
2020/12/23 00:31:08;;;;;;;24.10;14.23;;;7.40;95.40;;;;;;4981704;28;20161;-48
2020/12/23 00:33:34;;;;;;;19.95;13.73;;;7.40;95.50;;;;;;4987937;28;20097;-48
2020/12/23 00:36:01;;;;;;;18.23;12.95;;;7.40;95.50;;;;;;4993624;28;20500;-48
2020/12/23 00:38:27;;;;;;;22.20;12.55;;;7.40;95.50;;;;;;4989561;28;20354;-49
2020/12/23 00:40:53;;;;;;;19.95;12.73;;;7.40;95.60;;;;;;4982305;28;20062;-48
2020/12/23 00:43:19;;;;;;;18.48;12.68;;;7.40;95.50;;;;;;4994439;28;20384;-49
2020/12/23 00:45:46;;;;;;;24.52;13.23;;;7.40;95.50;;;;;;4996307;28;20049;-51
2020/12/23 00:48:12;;;;;;;21.85;13.98;;;7.40;95.50;;;;;;4983414;28;20042;-48
2020/12/23 00:50:38;;;;;;;21.13;13.10;;;7.40;95.50;;;;;;4997592;28;20076;-49
2020/12/23 00:53:05;;;;;;;21.98;13.38;;;7.40;95.50;;;;;;4996836;28;20064;-48
2020/12/23 00:55:30;;;;;;;21.52;12.52;;;7.40;95.60;;;;;;4996618;28;20117;-48
2020/12/23 00:57:59;;;;;;;21.90;13.23;;;7.50;95.60;;;;;;4996505;28;20038;-50
2020/12/23 01:00:25;;;;;;;20.77;12.88;;;7.50;95.60;;;;;;4984345;28;20086;-50
2020/12/23 01:02:50;;;;;;;19.67;13.13;;;7.50;95.60;;;;;;4995256;28;20133;-48
2020/12/23 01:05:16;;;;;;;18.92;12.40;;;7.50;95.60;;;;;;4996868;28;20117;-49
2020/12/23 01:07:42;;;;;;;24.60;14.30;;;7.50;95.60;;;;;;4990366;28;20130;-50
2020/12/23 01:10:08;;;;;;;24.73;12.88;;;7.50;95.60;;;;;;4990445;28;20299;-49
2020/12/23 01:12:34;;;;;;;19.60;12.35;;;7.50;95.60;;;;;;4978367;28;20050;-50
2020/12/23 01:15:02;;;;;;;27.85;13.55;;;7.50;95.60;;;;;;4987403;28;20049;-49
2020/12/23 01:17:28;;;;;;;28.77;13.93;;;7.60;95.60;;;;;;4992833;28;20038;-48
2020/12/23 01:19:53;;;;;;;19.60;12.68;;;7.60;95.60;;;;;;4986848;28;20038;-49
2020/12/23 01:22:19;;;;;;;28.35;13.32;;;7.60;95.60;;;;;;4982841;28;20042;-49
2020/12/23 01:24:45;;;;;;;26.10;14.77;;;7.60;95.50;;;;;;4988530;28;20054;-48
2020/12/23 01:27:13;;;;;;;24.67;14.40;;;7.60;95.50;;;;;;4989957;28;20050;-51
2020/12/23 01:29:39;;;;;;;27.40;13.75;;;7.60;95.50;;;;;;4965103;28;20046;-49
2020/12/23 01:32:04;;;;;;;21.38;13.25;;;7.60;95.60;;;;;;4984244;28;20037;-49
2020/12/23 01:34:30;;;;;;;25.70;14.10;;;7.60;95.60;;;;;;4976483;28;20030;-48
2020/12/23 01:36:56;;;;;;;21.17;13.68;;;7.60;95.60;;;;;;4983848;28;20042;-49
2020/12/23 01:39:22;;;;;;;23.45;13.82;;;7.60;95.60;;;;;;4978251;28;20062;-48
2020/12/23 01:41:56;;;;;;;27.42;14.32;;;7.60;95.60;;;;;;4980634;28;20108;-48
2020/12/23 01:44:22;;;;;;;29.55;15.10;;;7.60;95.60;;;;;;4992174;28;20042;-49
2020/12/23 01:46:50;;;;;;;25.83;15.23;;;7.60;95.60;;;;;;4972949;28;20079;-49
2020/12/23 01:49:16;;;;;;;30.55;15.18;;;7.60;95.60;;;;;;4984508;28;20065;-50
2020/12/23 01:51:43;;;;;;;23.15;13.00;;;7.70;95.60;;;;;;4993629;28;20133;-52
2020/12/23 01:54:14;;;;;;;22.75;13.07;;;7.70;95.50;;;;;;4993131;28;20487;-50
2020/12/23 01:56:43;;;;;;;23.90;14.68;;;7.70;95.50;;;;;;4992103;28;20428;-50
2020/12/23 01:59:10;;;;;;;25.95;15.25;;;7.70;95.50;;;;;;4980912;28;20069;-50
2020/12/23 02:01:44;;;;;;;35.30;16.88;;;7.60;95.50;;;;;;4987395;28;20109;-51
2020/12/23 02:04:10;;;;;;;26.92;15.93;;;7.70;95.60;;;;;;4985027;28;20129;-50
2020/12/23 02:06:37;;;;;;;29.23;15.32;;;7.70;95.60;;;;;;4986654;28;20081;-49
2020/12/23 02:09:03;;;;;;;33.92;16.88;;;7.70;95.60;;;;;;4984747;28;20149;-49
2020/12/23 02:11:29;;;;;;;30.45;15.88;;;7.70;95.60;;;;;;4984803;28;20499;-51
2020/12/23 02:13:57;;;;;;;31.17;17.25;;;7.70;95.70;;;;;;4988530;28;20561;-50
2020/12/23 02:16:22;;;;;;;28.55;17.55;;;7.70;95.70;;;;;;4981357;28;20070;-51
2020/12/23 02:18:49;;;;;;;36.60;16.70;;;7.70;95.70;;;;;;4977554;28;20073;-52
2020/12/23 02:21:16;;;;;;;30.08;17.23;;;7.70;95.70;;;;;;4979982;28;20070;-48
2020/12/23 02:23:42;;;;;;;31.52;17.25;;;7.70;95.70;;;;;;4990476;28;20070;-51
2020/12/23 02:26:08;;;;;;;35.80;17.73;;;7.70;95.70;;;;;;4972876;28;20077;-52
2020/12/23 02:28:33;;;;;;;39.83;19.17;;;7.70;95.80;;;;;;4990709;28;20054;-52
2020/12/23 02:31:01;;;;;;;42.15;19.23;;;7.70;95.70;;;;;;4992785;28;20046;-50
2020/12/23 02:33:27;;;;;;;37.08;18.27;;;7.70;95.70;;;;;;4992017;28;20046;-51
2020/12/23 02:35:53;;;;;;;36.00;18.75;;;7.80;95.70;;;;;;4986995;23;20077;-55
2020/12/23 02:38:18;;;;;;;38.70;18.98;;;7.80;95.70;;;;;;4968840;28;20046;-55
2020/12/23 02:40:44;;;;;;;41.50;21.48;;;7.80;95.70;;;;;;4952372;29;20035;-55
2020/12/23 02:43:10;;;;;;;35.30;18.75;;;7.80;95.70;;;;;;4935055;29;20549;-56
2020/12/23 02:45:35;;;;;;;34.13;18.25;;;7.80;95.70;;;;;;4964231;28;20046;-55
2020/12/23 02:48:01;;;;;;;38.58;20.30;;;7.80;95.70;;;;;;4971392;28;20133;-56
2020/12/23 02:50:26;;;;;;;43.28;22.25;;;7.80;95.70;;;;;;4971765;28;20043;-55
2020/12/23 02:52:52;;;;;;;44.85;21.65;;;7.80;95.70;;;;;;4969711;28;20050;-55
2020/12/23 02:55:18;;;;;;;41.67;21.20;;;7.80;95.80;;;;;;4960655;28;20121;-55
2020/12/23 02:57:44;;;;;;;50.25;25.02;;;7.80;95.80;;;;;;4971643;28;20486;-55
2020/12/23 03:00:09;;;;;;;42.30;24.10;;;7.80;95.80;;;;;;4971824;28;20042;-55
2020/12/23 03:02:35;;;;;;;53.47;24.65;;;7.80;95.80;;;;;;4971556;28;20055;-55
2020/12/23 03:05:01;;;;;;;48.28;24.80;;;7.90;95.80;;;;;;4971639;28;20093;-56
2020/12/23 03:07:26;;;;;;;55.30;26.52;;;7.80;95.80;;;;;;4971413;28;20050;-56
2020/12/23 03:09:52;;;;;;;49.25;24.00;;;7.80;95.80;;;;;;4971548;28;20047;-55
2020/12/23 03:12:17;;;;;;;42.97;23.88;;;7.80;95.80;;;;;;4970727;28;20042;-55
2020/12/23 03:14:43;;;;;;;54.72;26.98;;;7.80;95.90;;;;;;4971381;28;20035;-55
2020/12/23 03:17:09;;;;;;;61.60;28.55;;;7.90;95.90;;;;;;4971635;28;20466;-56
2020/12/23 03:19:34;;;;;;;53.08;26.55;;;7.90;95.90;;;;;;4971011;28;20509;-55
2020/12/23 03:22:00;;;;;;;51.15;26.42;;;7.90;96.00;;;;;;4971365;28;20118;-55
2020/12/23 03:24:25;;;;;;;56.25;26.48;;;7.90;95.90;;;;;;4970870;28;20514;-55
2020/12/23 03:26:51;;;;;;;53.13;27.33;;;7.90;95.90;;;;;;4974936;28;20461;-55
2020/12/23 03:29:16;;;;;;;45.28;24.60;;;7.90;95.90;;;;;;4975168;28;20058;-56
2020/12/23 03:31:42;;;;;;;55.17;27.45;;;8.00;96.00;;;;;;4974761;28;20058;-55
2020/12/23 03:34:08;;;;;;;49.17;26.85;;;8.00;96.00;;;;;;4954079;29;20047;-55
2020/12/23 03:36:34;;;;;;;59.97;28.38;;;8.00;95.90;;;;;;4973259;28;20049;-55
2020/12/23 03:38:59;;;;;;;59.03;28.05;;;8.00;96.00;;;;;;4974759;28;20422;-56
2020/12/23 03:41:25;;;;;;;52.72;28.08;;;8.00;95.90;;;;;;4974316;28;20045;-55
2020/12/23 03:43:51;;;;;;;55.38;28.35;;;8.00;96.00;;;;;;4974789;28;20082;-55
2020/12/23 03:46:16;;;;;;;64.40;29.85;;;8.00;96.00;;;;;;4974297;28;20055;-56
2020/12/23 03:48:42;;;;;;;58.65;28.13;;;8.00;96.00;;;;;;4974602;28;20149;-56
2020/12/23 03:51:07;;;;;;;60.03;27.35;;;8.00;96.00;;;;;;4974701;28;20503;-55
2020/12/23 03:53:33;;;;;;;60.13;27.02;;;8.00;96.00;;;;;;4958375;28;20050;-55
2020/12/23 03:55:59;;;;;;;68.07;28.83;;;8.10;96.00;;;;;;4955601;28;20047;-53
2020/12/23 03:58:25;;;;;;;61.55;28.55;;;8.10;96.00;;;;;;4958867;28;20090;-55
2020/12/23 04:00:51;;;;;;;55.15;26.63;;;8.10;96.00;;;;;;4974703;28;20129;-56
2020/12/23 04:03:16;;;;;;;60.00;27.25;;;8.20;96.00;;;;;;4974170;28;20244;-55
2020/12/23 04:05:42;;;;;;;64.70;27.60;;;8.20;96.00;;;;;;4974097;28;20047;-53
2020/12/23 04:08:07;;;;;;;67.28;28.27;;;8.20;96.00;;;;;;4973910;28;20145;-55
2020/12/23 04:10:33;;;;;;;66.70;29.20;;;8.20;96.00;;;;;;4973987;28;20485;-54
2020/12/23 04:12:59;;;;;;;61.80;26.52;;;8.20;96.00;;;;;;4973449;28;20042;-55
2020/12/23 04:15:25;;;;;;;68.75;26.67;;;8.20;96.00;;;;;;4973480;28;20043;-54
2020/12/23 04:17:52;;;;;;;61.78;26.35;;;8.30;96.10;;;;;;4974099;28;20134;-54
2020/12/23 04:20:20;;;;;;;58.45;24.83;;;8.30;96.00;;;;;;4973760;28;20042;-54
2020/12/23 04:22:46;;;;;;;63.95;26.00;;;8.40;96.00;;;;;;4973532;28;20035;-55
2020/12/23 04:25:12;;;;;;;66.45;27.40;;;8.30;95.90;;;;;;4974074;28;20092;-53
2020/12/23 04:27:37;;;;;;;58.97;26.02;;;8.30;96.00;;;;;;4973699;28;20062;-53
2020/12/23 04:30:07;;;;;;;68.80;26.95;;;8.30;96.00;;;;;;4958931;28;20170;-55
2020/12/23 04:32:33;;;;;;;67.57;26.75;;;8.40;96.00;;;;;;4970595;28;20053;-53
2020/12/23 04:35:02;;;;;;;56.88;24.70;;;8.40;96.00;;;;;;4973348;28;20048;-54
2020/12/23 04:37:28;;;;;;;65.18;25.67;;;8.40;96.00;;;;;;4973091;28;20058;-54
2020/12/23 04:39:55;;;;;;;60.50;25.40;;;8.40;96.00;;;;;;4973865;28;20035;-53
2020/12/23 04:42:21;;;;;;;65.30;26.15;;;8.50;96.00;;;;;;4973708;28;20043;-55
2020/12/23 04:44:47;;;;;;;55.85;24.15;;;8.50;95.90;;;;;;4973073;28;20050;-56
2020/12/23 04:47:15;;;;;;;59.47;24.40;;;8.50;96.00;;;;;;4973659;28;20038;-55
2020/12/23 04:49:45;;;;;;;59.17;24.85;;;8.40;96.00;;;;;;4973302;28;20035;-53
2020/12/23 04:52:12;;;;;;;56.65;23.63;;;8.50;96.00;;;;;;4967413;28;20095;-55
2020/12/23 04:54:38;;;;;;;53.97;23.05;;;8.50;95.90;;;;;;4969954;28;20039;-55
2020/12/23 04:57:04;;;;;;;59.78;25.52;;;8.50;95.90;;;;;;4969115;28;20095;-52
2020/12/23 04:59:30;;;;;;;51.65;23.50;;;8.60;96.00;;;;;;4958861;28;20043;-54
2020/12/23 05:01:59;;;;;;;55.72;22.90;;;8.40;95.90;;;;;;4973168;28;20491;-52
2020/12/23 05:04:26;;;;;;;51.65;23.00;;;8.50;96.00;;;;;;4972947;28;20050;-53
2020/12/23 05:07:05;;;;;;;52.13;23.45;;;8.50;95.90;;;;;;4972344;28;20047;-54
2020/12/23 05:09:31;;;;;;;50.58;24.30;;;8.50;95.90;;;;;;4973513;28;20134;-52
2020/12/23 05:11:59;;;;;;;60.78;25.33;;;8.50;96.00;;;;;;4972768;28;20173;-54
2020/12/23 05:14:26;;;;;;;56.35;24.85;;;8.50;95.90;;;;;;4960886;28;20125;-52
2020/12/23 05:16:52;;;;;;;57.38;23.95;;;8.50;95.90;;;;;;4952443;28;20082;-54
2020/12/23 05:19:19;;;;;;;56.22;25.45;;;8.50;96.00;;;;;;4972474;28;20031;-54
2020/12/23 05:21:45;;;;;;;56.45;24.73;;;8.60;96.00;;;;;;4952369;28;20510;-56
2020/12/23 05:24:12;;;;;;;59.13;25.92;;;8.50;95.90;;;;;;4969999;28;20039;-54
2020/12/23 05:26:40;;;;;;;65.38;26.40;;;8.50;95.90;;;;;;4972335;28;20126;-54
2020/12/23 05:29:05;;;;;;;64.95;25.73;;;8.60;96.00;;;;;;4955630;28;20049;-54
2020/12/23 05:31:35;;;;;;;68.13;25.95;;;8.50;96.00;;;;;;4972214;28;20038;-55
2020/12/23 05:34:04;;;;;;;61.35;25.52;;;8.60;96.00;;;;;;4962349;28;20500;-54
2020/12/23 05:36:32;;;;;;;57.60;25.48;;;8.60;95.90;;;;;;4969010;28;20399;-54
2020/12/23 05:38:59;;;;;;;64.85;26.10;;;8.60;95.90;;;;;;4973019;28;20042;-54
2020/12/23 05:41:25;;;;;;;64.93;27.58;;;8.60;96.00;;;;;;4972217;28;20129;-56
2020/12/23 05:43:50;;;;;;;51.95;25.02;;;8.60;96.00;;;;;;4972531;28;20122;-56
2020/12/23 05:46:16;;;;;;;57.70;26.55;;;8.50;95.90;;;;;;4972430;28;20088;-56
2020/12/23 05:48:42;;;;;;;57.47;25.88;;;8.60;95.90;;;;;;4958230;28;20047;-55
2020/12/23 05:51:09;;;;;;;50.47;25.52;;;8.60;95.90;;;;;;4972640;28;20396;-55
2020/12/23 05:53:37;;;;;;;62.22;26.35;;;8.60;95.90;;;;;;4971869;28;20047;-54
2020/12/23 05:56:05;;;;;;;62.42;25.63;;;8.60;95.90;;;;;;4972445;28;20054;-55
2020/12/23 05:58:33;;;;;;;66.05;26.95;;;8.60;96.00;;;;;;4972117;28;20384;-55
2020/12/23 06:01:02;;;;;;;58.53;27.40;;;8.60;95.90;;;;;;4972303;28;20517;-56
2020/12/23 06:03:58;;;;;;;76.38;29.33;;;8.60;95.90;;;;;;4971577;28;20102;-55
2020/12/23 06:06:28;;;;;;;74.25;27.38;;;8.60;96.00;;;;;;4971803;28;20058;-55
2020/12/23 06:08:56;;;;;;;75.90;28.55;;;8.60;96.00;;;;;;4971869;28;20062;-53
2020/12/23 06:11:40;;;;;;;79.32;29.42;;;8.60;96.00;;;;;;4972086;28;20533;-56
2020/12/23 06:14:17;;;;;;;75.03;29.15;;;8.60;96.00;;;;;;4971362;28;20042;-53
2020/12/23 06:17:04;;;;;;;65.93;28.13;;;8.60;96.00;;;;;;4972427;28;20106;-55
2020/12/23 06:19:36;;;;;;;68.65;28.92;;;8.60;96.00;;;;;;4972038;28;20043;-53
2020/12/23 06:22:06;;;;;;;63.22;26.67;;;8.60;96.00;;;;;;4971927;28;20447;-55
2020/12/23 06:24:32;;;;;;;50.83;24.90;;;8.60;96.10;;;;;;4959547;28;20042;-56
2020/12/23 06:27:02;;;;;;;61.35;26.33;;;8.70;95.90;;;;;;4972028;28;20047;-55
2020/12/23 06:29:31;;;;;;;58.63;26.35;;;8.60;95.90;;;;;;4971824;28;20121;-56
2020/12/23 06:31:59;;;;;;;71.50;28.35;;;8.60;96.00;;;;;;4971984;28;20074;-56
2020/12/23 06:34:30;;;;;;;87.40;30.55;;;8.80;96.00;;;;;;4967295;28;20046;-56
2020/12/23 06:36:57;;;;;;;62.63;25.80;;;8.60;95.90;;;;;;4967567;28;20679;-55
2020/12/23 06:39:25;;;;;;;61.67;26.65;;;8.70;96.00;;;;;;4971617;28;20558;-54
2020/12/23 06:41:53;;;;;;;85.68;28.02;;;8.80;95.80;;;;;;4967434;28;20118;-56
2020/12/23 06:44:19;;;;;;;72.70;27.73;;;8.70;95.80;;;;;;4969540;28;20062;-56
2020/12/23 06:47:00;;;;;;;75.18;28.65;;;8.70;95.90;;;;;;4964786;28;20570;-54
2020/12/23 06:49:42;;;;;;;69.65;27.25;;;8.70;96.00;;;;;;4967622;28;20051;-55
2020/12/23 06:52:29;;;;;;;61.67;26.63;;;8.60;96.00;;;;;;4971582;28;20696;-53
2020/12/23 06:55:44;;;;;;;70.47;27.15;;;8.70;96.10;;;;;;4971094;28;20102;-55
2020/12/23 06:58:29;;;;;;;56.13;26.00;;;8.70;96.10;;;;;;4892988;29;20048;-53
2020/12/23 07:01:18;;;;;;;73.47;27.30;;;8.70;96.10;;;;;;4975414;28;20047;-54
2020/12/23 07:03:44;;;;;;;65.72;26.60;;;8.60;96.10;;;;;;4975537;28;20114;-56
2020/12/23 07:06:37;;;;;;;79.45;27.58;;;8.70;96.10;;;;;;4975508;28;20133;-55
2020/12/23 07:09:04;;;;;;;74.45;25.65;;;8.60;96.10;;;;;;4975028;28;20329;-53
2020/12/23 07:11:33;;;;;;;74.97;26.17;;;8.70;96.20;;;;;;4974647;28;20414;-55
2020/12/23 07:13:59;;;;;;;69.93;25.67;;;8.70;96.20;;;;;;4974724;28;20038;-55
2020/12/23 07:16:25;;;;;;;80.68;27.73;;;8.60;96.10;;;;;;4974556;28;20047;-56
2020/12/23 07:18:53;;;;;;;82.10;28.17;;;8.70;96.10;;;;;;4974773;28;20038;-55
2020/12/23 07:21:26;;;;;;;84.82;27.25;;;8.70;96.10;;;;;;4975186;28;20217;-53
2020/12/23 07:23:53;;;;;;;;;;;8.70;96.20;;;;;;4974543;28;20038;-55
2020/12/23 07:26:23;;;;;;;99.80;27.83;;;8.70;96.20;;;;;;4974608;28;20022;-55
2020/12/23 07:28:50;;;;;;;96.55;29.05;;;8.70;96.10;;;;;;4974777;28;20070;-56
2020/12/23 07:31:16;;;;;;;87.15;28.67;;;8.70;96.10;;;;;;4974519;28;20511;-54
2020/12/23 07:33:42;;;;;;;94.85;28.10;;;8.70;96.10;;;;;;4973697;28;20067;-54
2020/12/23 07:36:08;;;;;;;100.55;27.95;;;8.70;96.30;;;;;;4961626;28;20050;-54
2020/12/23 07:38:36;;;;;;;148.23;31.17;;;8.80;96.20;;;;;;4959782;28;20495;-55
2020/12/23 07:41:02;;;;;;;109.70;30.30;;;8.70;96.10;;;;;;4974703;28;20050;-53
2020/12/23 07:43:28;;;;;;;104.97;29.90;;;8.70;96.20;;;;;;4960956;28;20058;-54
2020/12/23 07:45:55;;;;;;;110.05;29.30;;;8.70;96.30;;;;;;4974839;28;20066;-53
2020/12/23 07:48:22;;;;;;;89.55;28.48;;;8.70;96.30;;;;;;4960815;28;20082;-54
2020/12/23 07:50:50;;;;;;;121.40;28.90;;;8.70;96.40;;;;;;4974795;28;20065;-53
2020/12/23 07:53:30;;;;;;;137.25;29.52;;;8.80;96.40;;;;;;4973782;28;20068;-54
2020/12/23 07:56:07;;;;;;;146.52;33.78;;;8.80;96.30;;;;;;4974789;28;20047;-55
2020/12/23 07:58:33;;;;;;;142.23;31.02;;;8.80;96.30;;;;;;4974260;28;20206;-53
2020/12/23 08:01:00;;;;;;;149.65;33.15;;;8.80;96.40;;;;;;4974623;28;20046;-56
2020/12/23 08:03:30;;;;;;;165.70;33.80;;;8.80;96.30;;;;;;4973552;28;20097;-55
2020/12/23 08:06:12;;;;;;;185.10;34.33;;;8.70;96.30;;;;;;4973671;28;20050;-54
2020/12/23 08:08:42;;;;;;;153.05;32.67;;;8.80;96.40;;;;;;4973317;28;20558;-54
2020/12/23 08:11:09;;;;;;;168.35;34.35;;;8.80;96.40;;;;;;4953155;28;20451;-54
2020/12/23 08:13:36;;;;;;;199.43;33.47;;;8.80;96.50;;;;;;4968436;28;20046;-53
2020/12/23 08:16:09;;;;;;;205.65;35.65;;;8.70;96.50;;;;;;4974252;28;20055;-56
2020/12/23 08:18:36;;;;;;;168.18;33.63;;;8.80;96.50;;;;;;4974233;28;20458;-55
2020/12/23 08:21:18;;;;;;;180.55;35.85;;;8.80;96.60;;;;;;4956062;28;20046;-56
2020/12/23 08:23:46;;;;;;;;;;;8.80;96.60;;;;;;4965895;28;20035;-55
2020/12/23 08:26:12;;;;;;;278.85;35.60;;;8.90;96.60;;;;;;4959627;28;20362;-53
2020/12/23 08:28:40;;;;;;;200.82;35.05;;;8.90;96.90;;;;;;4969177;28;20069;-53
2020/12/23 08:31:10;;;;;;;148.85;33.78;;;8.90;96.60;;;;;;4968875;28;20052;-53
2020/12/23 08:33:36;;;;;;;212.25;36.88;;;8.90;96.50;;;;;;4974091;28;20122;-56
2020/12/23 08:36:04;;;;;;;145.25;33.45;;;8.90;96.50;;;;;;4973337;28;20066;-55
2020/12/23 08:38:30;;;;;;;177.73;33.60;;;9.00;96.60;;;;;;4973456;28;20043;-53
2020/12/23 08:40:58;;;;;;;283.67;37.15;;;8.90;96.60;;;;;;4970582;28;20039;-56
2020/12/23 08:43:28;;;;;;;182.95;33.45;;;9.00;96.50;;;;;;4973755;28;20077;-55
2020/12/23 08:45:56;;;;;;;174.25;33.72;;;9.00;96.60;;;;;;4973364;28;20415;-56
2020/12/23 08:48:23;;;;;;;189.13;34.22;;;9.00;96.50;;;;;;4966954;28;20039;-56
2020/12/23 08:51:03;;;;;;;183.15;34.60;;;9.00;96.50;;;;;;4971728;28;20551;-53
2020/12/23 08:53:38;;;;;;;169.52;31.88;;;9.00;96.60;;;;;;4974031;28;20042;-56
2020/12/23 08:56:31;;;;;;;181.10;32.50;;;9.00;96.60;;;;;;4972854;28;20050;-56
2020/12/23 08:59:02;;;;;;;159.60;32.60;;;9.00;96.50;;;;;;4968967;28;20070;-56
2020/12/23 09:01:30;;;;;;;171.00;34.08;;;9.00;96.60;;;;;;4973165;28;20046;-55
2020/12/23 09:04:00;;;;;;;191.45;33.28;;;9.00;96.70;;;;;;4972812;28;20050;-54
2020/12/23 09:06:26;;;;;;;179.27;32.72;;;9.00;96.60;;;;;;4973274;28;20287;-56
2020/12/23 09:08:51;;;;;;;172.02;33.05;;;9.00;96.60;;;;;;4973476;28;20499;-53
2020/12/23 09:11:17;;;;;;;157.85;31.40;;;9.10;96.60;;;;;;4972786;28;20049;-53
2020/12/23 09:13:42;;;;;;;132.80;28.60;;;9.10;96.60;;;;;;4973146;28;20069;-53
2020/12/23 09:16:15;;;;;;;167.23;32.15;;;9.10;96.60;;;;;;4972717;28;20080;-56
2020/12/23 09:18:49;;;;;;;111.93;30.17;;;9.10;96.50;;;;;;4973013;28;20061;-55
2020/12/23 09:21:18;;;;;;;154.90;31.58;;;9.10;96.50;;;;;;4972840;28;20042;-52
2020/12/23 09:23:44;;;;;;;119.13;29.38;;;9.10;96.60;;;;;;4971836;28;20522;-56
2020/12/23 09:26:16;;;;;;;113.47;27.15;;;9.10;96.70;;;;;;4971110;23;20047;-51
2020/12/23 09:28:41;;;;;;;100.60;25.95;;;9.10;96.70;;;;;;4944774;28;20133;-51
2020/12/23 09:31:08;;;;;;;86.13;24.15;;;9.10;96.70;;;;;;4942235;28;20131;-51
2020/12/23 09:33:41;;;;;;;84.32;23.60;;;9.10;96.70;;;;;;4948476;28;20050;-51
2020/12/23 09:36:08;;;;;;;69.18;22.15;;;9.10;96.70;;;;;;4950077;28;20030;-51
2020/12/23 09:38:34;;;;;;;65.13;21.00;;;9.30;96.70;;;;;;4947287;28;20046;-51
2020/12/23 09:41:01;;;;;;;73.00;22.88;;;9.20;96.60;;;;;;4946366;28;20044;-53
2020/12/23 09:43:29;;;;;;;68.07;19.48;;;9.20;96.60;;;;;;4941049;28;20043;-50
2020/12/23 09:45:59;;;;;;;65.85;20.77;;;9.30;96.60;;;;;;4953008;28;20353;-50
2020/12/23 09:48:27;;;;;;;48.03;17.98;;;9.20;96.60;;;;;;4953749;28;20035;-52
2020/12/23 09:50:53;;;;;;;60.70;18.55;;;9.20;96.60;;;;;;4965591;28;20050;-50
2020/12/23 09:53:19;;;;;;;55.30;16.90;;;9.20;96.70;;;;;;4952856;28;20054;-50
2020/12/23 09:55:46;;;;;;;41.45;15.52;;;9.20;96.70;;;;;;4958034;28;20102;-52
2020/12/23 09:58:13;;;;;;;39.38;14.75;;;9.20;96.70;;;;;;4972203;28;20130;-50
2020/12/23 10:00:39;;;;;;;42.88;16.05;;;9.30;96.90;;;;;;4960913;28;20054;-50
2020/12/23 10:03:07;;;;;;;47.95;15.77;;;9.20;96.80;;;;;;4952432;28;20046;-50
2020/12/23 10:05:32;;;;;;;47.22;15.40;;;9.30;96.80;;;;;;4952768;28;20399;-50
2020/12/23 10:07:59;;;;;;;37.75;13.95;;;9.20;96.80;;;;;;4952997;28;20062;-50
2020/12/23 10:10:25;;;;;;;38.58;14.57;;;9.30;96.80;;;;;;4957729;28;20050;-52
2020/12/23 10:12:51;;;;;;;41.95;14.63;;;9.30;96.80;;;;;;4952571;28;20051;-50
2020/12/23 10:15:16;;;;;;;33.70;13.57;;;9.30;96.80;;;;;;4952554;28;20043;-50
2020/12/23 10:17:42;;;;;;;28.42;11.40;;;9.30;96.80;;;;;;4952832;28;20046;-51
2020/12/23 10:20:08;;;;;;;33.80;12.18;;;9.40;96.80;;;;;;4957862;28;20055;-52
2020/12/23 10:22:35;;;;;;;27.27;11.23;;;9.40;96.60;;;;;;4952561;28;20102;-50
2020/12/23 10:25:01;;;;;;;27.35;11.80;;;9.50;96.70;;;;;;4952810;28;20123;-50
2020/12/23 10:27:26;;;;;;;30.48;11.75;;;9.40;96.70;;;;;;4957527;28;20136;-50
2020/12/23 10:29:52;;;;;;;27.67;11.20;;;9.50;96.60;;;;;;4957926;28;20081;-50
2020/12/23 10:32:21;;;;;;;23.42;10.73;;;9.40;96.60;;;;;;4952313;28;20463;-54
2020/12/23 10:34:47;;;;;;;28.23;12.55;;;9.40;96.70;;;;;;4951399;28;20049;-49
2020/12/23 10:37:14;;;;;;;42.17;13.23;;;9.40;96.70;;;;;;4956289;28;20134;-50
2020/12/23 10:39:39;;;;;;;26.65;10.90;;;9.40;96.70;;;;;;4956499;28;20086;-49
2020/12/23 10:42:05;;;;;;;31.00;11.07;;;9.40;96.70;;;;;;4951597;28;20496;-50
2020/12/23 10:44:30;;;;;;;29.75;11.77;;;9.40;96.80;;;;;;4951653;28;20039;-50
2020/12/23 10:47:00;;;;;;;25.02;11.43;;;9.50;96.70;;;;;;4957053;28;20047;-55
2020/12/23 10:49:26;;;;;;;24.88;11.63;;;9.50;96.80;;;;;;4965636;28;20127;-55
2020/12/23 10:51:54;;;;;;;33.55;11.95;;;9.50;96.70;;;;;;4960556;28;20518;-53
2020/12/23 10:54:20;;;;;;;27.83;11.57;;;9.50;96.80;;;;;;4963761;28;20050;-55
2020/12/23 10:56:46;;;;;;;28.63;12.30;;;9.50;96.80;;;;;;4962398;28;20051;-56
2020/12/23 10:59:11;;;;;;;29.40;11.68;;;9.50;96.90;;;;;;4961855;28;20039;-55
2020/12/23 11:01:37;;;;;;;30.42;12.13;;;9.50;96.90;;;;;;4976010;28;20096;-55
2020/12/23 11:04:05;;;;;;;26.10;12.25;;;9.60;96.80;;;;;;4958214;28;20035;-55
2020/12/23 11:06:30;;;;;;;33.10;13.10;;;9.60;96.80;;;;;;4966084;28;20262;-54
2020/12/23 11:08:57;;;;;;;27.05;11.40;;;9.60;96.70;;;;;;4961787;28;20414;-54
2020/12/23 11:11:22;;;;;;;43.80;14.55;;;9.60;96.80;;;;;;4968113;28;20054;-56
2020/12/23 11:13:48;;;;;;;38.67;13.45;;;9.60;96.70;;;;;;4955775;28;20415;-55
2020/12/23 11:16:15;;;;;;;31.25;12.70;;;9.60;96.70;;;;;;4937076;28;20134;-56
2020/12/23 11:18:41;;;;;;;32.13;13.60;;;9.60;96.80;;;;;;4960524;28;20101;-54
2020/12/23 11:21:07;;;;;;;33.78;12.68;;;9.60;96.80;;;;;;4961651;28;20043;-55
2020/12/23 11:23:33;;;;;;;32.00;14.30;;;9.70;96.80;;;;;;4965376;28;20522;-56
2020/12/23 11:25:58;;;;;;;39.22;14.40;;;9.60;96.80;;;;;;4955391;28;20047;-54
2020/12/23 11:28:24;;;;;;;55.28;16.15;;;9.60;96.80;;;;;;4963702;28;20042;-55
2020/12/23 11:30:50;;;;;;;42.97;14.95;;;9.60;96.80;;;;;;4973560;28;20035;-53
2020/12/23 11:33:15;;;;;;;37.05;14.60;;;9.60;96.90;;;;;;4974920;28;20491;-56
2020/12/23 11:35:41;;;;;;;50.30;15.00;;;9.60;96.90;;;;;;4954328;28;20055;-51
2020/12/23 11:38:07;;;;;;;54.53;15.32;;;9.60;96.90;;;;;;4955104;28;20067;-55
2020/12/23 11:40:33;;;;;;;38.35;14.85;;;9.60;96.90;;;;;;4956025;28;20087;-53
2020/12/23 11:42:59;;;;;;;55.78;16.38;;;9.60;96.90;;;;;;4955657;28;20043;-53
2020/12/23 11:45:25;;;;;;;53.15;14.95;;;9.60;96.90;;;;;;4950054;28;20039;-54
2020/12/23 11:47:51;;;;;;;72.90;16.67;;;9.70;97.00;;;;;;4954964;28;20050;-54
2020/12/23 11:50:16;;;;;;;41.10;14.75;;;9.70;97.00;;;;;;4960326;28;20047;-51
2020/12/23 11:52:42;;;;;;;54.58;15.70;;;9.70;97.00;;;;;;4955052;28;20162;-52
2020/12/23 11:55:08;;;;;;;47.83;16.60;;;9.70;97.00;;;;;;4954606;28;20057;-50
2020/12/23 11:57:38;;;;;;;59.85;16.95;;;9.70;97.00;;;;;;4946219;28;20396;-51
2020/12/23 12:00:07;;;;;;;45.20;15.95;;;9.70;97.10;;;;;;4948384;28;20050;-51
2020/12/23 12:02:33;;;;;;;46.20;15.80;;;9.80;97.10;;;;;;4954647;28;20035;-50
2020/12/23 12:04:59;;;;;;;39.88;15.60;;;9.80;97.10;;;;;;4955198;28;20087;-50
2020/12/23 12:07:24;;;;;;;50.50;16.63;;;9.80;97.00;;;;;;4954727;28;20059;-50
2020/12/23 12:09:50;;;;;;;43.00;15.63;;;9.80;97.00;;;;;;4954704;28;20051;-52
2020/12/23 12:12:16;;;;;;;65.97;18.35;;;9.80;97.00;;;;;;4954535;28;20126;-50
2020/12/23 12:14:41;;;;;;;74.10;19.60;;;9.80;97.00;;;;;;4958232;28;20094;-50
2020/12/23 12:17:08;;;;;;;62.55;18.45;;;9.80;97.00;;;;;;4948296;28;20601;-53
2020/12/23 12:19:33;;;;;;;58.88;18.08;;;9.80;97.10;;;;;;4954676;28;20042;-53
2020/12/23 12:21:59;;;;;;;64.97;17.75;;;9.80;97.10;;;;;;4948587;28;20130;-51
2020/12/23 12:24:24;;;;;;;58.95;18.38;;;9.90;97.10;;;;;;4951785;28;20082;-53
2020/12/23 12:26:50;;;;;;;44.47;17.33;;;9.90;97.10;;;;;;4954155;28;20051;-53
2020/12/23 12:29:16;;;;;;;47.67;18.08;;;9.90;97.10;;;;;;4954692;28;20049;-53
2020/12/23 12:31:42;;;;;;;71.50;19.35;;;9.90;97.10;;;;;;4946023;28;20411;-52
2020/12/23 12:34:08;;;;;;;83.82;20.25;;;9.90;97.10;;;;;;4954320;28;20059;-53
2020/12/23 12:36:34;;;;;;;59.75;19.13;;;9.90;97.10;;;;;;4954587;28;20397;-53
2020/12/23 12:38:59;;;;;;;58.85;19.42;;;9.90;97.10;;;;;;4958693;28;20054;-53